Time;durP1;ratioP1;P1;durP2;ratioP2;P2;SDS_P1;SDS_P2;PMS_P1;PMS_P2;Temp;Humidity;BMP_temperature;BMP_pressure;BME280_temperature;BME280_humidity;BME280_pressure;Samples;Min_cycle;Max_cycle;Signal;HPM_P1;HPM_P2
2023/12/02 00:02:18;;;;;;;31.88;18.48;;;1.50;99.90;;;;;;5021815;28;20192;-38
2023/12/02 00:04:44;;;;;;;33.33;18.75;;;1.50;99.90;;;;;;5053571;28;20236;-37
2023/12/02 00:07:10;;;;;;;31.08;18.67;;;1.50;99.90;;;;;;5021815;28;20195;-37
2023/12/02 00:09:36;;;;;;;34.20;19.92;;;1.50;99.90;;;;;;5021706;28;20597;-38
2023/12/02 00:12:03;;;;;;;32.30;19.02;;;1.50;99.90;;;;;;5022782;28;20187;-37
2023/12/02 00:14:30;;;;;;;30.80;18.40;;;1.50;99.90;;;;;;5021178;28;20234;-46
2023/12/02 00:16:56;;;;;;;32.22;18.00;;;1.60;99.90;;;;;;5020894;28;20691;-39
2023/12/02 00:19:22;;;;;;;32.67;18.67;;;1.60;99.90;;;;;;5053261;28;20290;-39
2023/12/02 00:21:49;;;;;;;34.60;18.15;;;1.60;99.90;;;;;;5020916;28;20195;-39
2023/12/02 00:24:15;;;;;;;31.70;18.33;;;1.60;99.90;;;;;;5019828;28;20207;-37
2023/12/02 00:26:40;;;;;;;33.33;19.60;;;1.60;99.90;;;;;;5021873;28;20184;-39
2023/12/02 00:29:06;;;;;;;35.20;19.85;;;1.60;99.90;;;;;;5021327;28;20198;-39
2023/12/02 00:31:32;;;;;;;35.63;19.30;;;1.60;99.90;;;;;;5020233;28;20599;-40
2023/12/02 00:33:58;;;;;;;33.80;19.15;;;1.60;99.90;;;;;;5020486;28;20195;-37
2023/12/02 00:36:24;;;;;;;37.30;20.40;;;1.60;99.90;;;;;;5021718;28;20195;-38
2023/12/02 00:38:51;;;;;;;35.53;20.58;;;1.60;99.90;;;;;;5021390;28;20207;-39
2023/12/02 00:41:17;;;;;;;36.20;20.35;;;1.60;99.90;;;;;;5021371;28;20203;-37
2023/12/02 00:43:42;;;;;;;37.33;19.55;;;1.60;99.90;;;;;;5020915;28;20572;-38
2023/12/02 00:46:08;;;;;;;36.42;20.85;;;1.60;99.90;;;;;;5021572;28;20297;-38
2023/12/02 00:48:34;;;;;;;37.72;21.02;;;1.60;99.90;;;;;;5052697;28;20219;-39
2023/12/02 00:51:00;;;;;;;41.30;22.33;;;1.60;99.90;;;;;;5021357;28;20191;-39
2023/12/02 00:53:26;;;;;;;35.50;19.92;;;1.60;99.90;;;;;;5021342;28;20668;-41
2023/12/02 00:55:52;;;;;;;38.50;21.58;;;1.50;99.90;;;;;;5036466;28;20271;-38
2023/12/02 00:58:18;;;;;;;44.70;23.23;;;1.60;99.90;;;;;;5021016;28;20188;-37
2023/12/02 01:00:44;;;;;;;38.95;22.42;;;1.60;99.90;;;;;;5053345;28;20191;-40
2023/12/02 01:03:09;;;;;;;41.40;22.98;;;1.50;99.90;;;;;;5051730;28;20231;-39
2023/12/02 01:05:35;;;;;;;42.83;23.45;;;1.60;99.90;;;;;;5020895;28;20257;-39
2023/12/02 01:08:01;;;;;;;41.97;23.00;;;1.60;99.90;;;;;;5052417;28;20679;-36
2023/12/02 01:10:27;;;;;;;38.28;21.90;;;1.60;99.90;;;;;;5020382;28;20192;-38
2023/12/02 01:12:53;;;;;;;39.03;22.17;;;1.60;99.90;;;;;;5021023;28;21639;-39
2023/12/02 01:15:19;;;;;;;36.97;21.15;;;1.60;99.90;;;;;;5051776;28;20183;-38
2023/12/02 01:17:45;;;;;;;37.38;21.80;;;1.60;99.90;;;;;;5019630;28;20204;-39
2023/12/02 01:20:11;;;;;;;34.13;20.63;;;1.60;99.90;;;;;;5020929;28;20553;-39
2023/12/02 01:22:37;;;;;;;35.25;20.38;;;1.50;99.90;;;;;;5020432;28;20195;-41
2023/12/02 01:25:03;;;;;;;38.28;20.55;;;1.60;99.90;;;;;;5020768;28;20211;-39
2023/12/02 01:27:30;;;;;;;34.90;20.23;;;1.60;99.90;;;;;;5020247;28;20254;-40
2023/12/02 01:29:55;;;;;;;34.55;20.40;;;1.60;99.90;;;;;;5020648;28;20194;-40
2023/12/02 01:32:21;;;;;;;37.22;20.23;;;1.60;99.90;;;;;;5020841;28;20200;-36
2023/12/02 01:34:47;;;;;;;37.92;21.27;;;1.70;99.90;;;;;;5020667;28;20246;-38
2023/12/02 01:37:13;;;;;;;39.38;22.65;;;1.70;99.90;;;;;;5021074;28;20219;-43
2023/12/02 01:39:39;;;;;;;41.17;21.50;;;1.70;99.90;;;;;;5020380;28;20660;-38
2023/12/02 01:42:05;;;;;;;36.72;21.17;;;1.60;99.90;;;;;;5020687;28;20198;-38
2023/12/02 01:44:31;;;;;;;35.15;20.35;;;1.60;99.90;;;;;;5003937;28;20220;-37
2023/12/02 01:46:57;;;;;;;39.97;21.27;;;1.60;99.90;;;;;;5024402;28;20206;-37
2023/12/02 01:49:24;;;;;;;37.75;22.05;;;1.50;99.90;;;;;;5024791;28;20656;-38
2023/12/02 01:51:51;;;;;;;36.92;20.33;;;1.50;99.90;;;;;;5022739;28;20192;-38
2023/12/02 01:54:19;;;;;;;33.83;20.17;;;1.50;99.90;;;;;;5024142;28;20204;-41
2023/12/02 01:56:46;;;;;;;36.90;21.35;;;1.50;99.90;;;;;;5023950;28;20291;-39
2023/12/02 01:59:27;;;;;;;39.88;22.65;;;1.50;99.90;;;;;;5024276;28;20199;-38
2023/12/02 02:01:53;;;;;;;40.75;22.45;;;1.50;99.90;;;;;;5024027;28;20640;-41
2023/12/02 02:04:19;;;;;;;40.67;23.83;;;1.50;99.90;;;;;;5024052;28;20223;-38
2023/12/02 02:06:45;;;;;;;41.95;24.17;;;1.50;99.90;;;;;;5023548;28;20253;-46
2023/12/02 02:09:11;;;;;;;44.47;25.85;;;1.50;99.90;;;;;;5022230;28;20690;-37
2023/12/02 02:11:37;;;;;;;47.22;26.40;;;1.50;99.90;;;;;;5023588;28;20195;-37
2023/12/02 02:14:03;;;;;;;48.08;26.27;;;1.50;99.90;;;;;;5023754;28;20202;-39
2023/12/02 02:16:29;;;;;;;49.25;27.75;;;1.40;99.90;;;;;;5022069;28;20196;-40
2023/12/02 02:18:54;;;;;;;51.03;26.83;;;1.40;99.90;;;;;;5022363;28;20272;-37
2023/12/02 02:21:21;;;;;;;52.80;26.83;;;1.40;99.90;;;;;;5022567;28;20199;-39
2023/12/02 02:23:46;;;;;;;52.65;28.20;;;1.40;99.90;;;;;;5013229;28;20228;-38
2023/12/02 02:26:12;;;;;;;54.25;27.45;;;1.30;99.90;;;;;;5023163;28;20203;-37
2023/12/02 02:28:38;;;;;;;52.28;27.63;;;1.30;99.90;;;;;;5023521;28;20676;-36
2023/12/02 02:31:04;;;;;;;50.05;27.65;;;1.30;99.90;;;;;;5021716;28;20260;-37
2023/12/02 02:33:34;;;;;;;49.00;27.15;;;1.30;99.90;;;;;;5023399;28;20200;-39
2023/12/02 02:36:00;;;;;;;53.80;29.13;;;1.30;99.90;;;;;;5021562;28;20203;-37
2023/12/02 02:38:26;;;;;;;50.80;27.70;;;1.30;99.90;;;;;;5023585;28;20434;-38
2023/12/02 02:40:52;;;;;;;53.75;28.50;;;1.20;99.90;;;;;;5023107;28;20184;-38
2023/12/02 02:43:18;;;;;;;53.58;28.50;;;1.20;99.90;;;;;;5023044;28;21114;-38
2023/12/02 02:45:43;;;;;;;53.08;28.33;;;1.20;99.90;;;;;;5023127;28;20191;-36
2023/12/02 02:48:09;;;;;;;51.05;28.27;;;1.20;99.90;;;;;;5023388;28;20196;-38
2023/12/02 02:50:35;;;;;;;48.47;27.50;;;1.10;99.90;;;;;;5022869;28;20297;-39
2023/12/02 02:53:01;;;;;;;47.90;26.33;;;1.10;99.90;;;;;;5021854;28;20227;-39
2023/12/02 02:55:27;;;;;;;47.85;26.35;;;1.10;99.90;;;;;;5022873;28;20192;-37
2023/12/02 02:57:53;;;;;;;46.25;26.00;;;1.00;99.90;;;;;;5022418;28;20559;-37
2023/12/02 03:00:19;;;;;;;49.20;27.25;;;1.00;99.90;;;;;;5022921;28;20547;-37
2023/12/02 03:02:45;;;;;;;48.15;27.50;;;1.00;99.90;;;;;;5023053;28;20188;-37
2023/12/02 03:05:11;;;;;;;47.53;27.70;;;1.00;99.90;;;;;;5054092;28;20254;-37
2023/12/02 03:07:37;;;;;;;48.50;28.10;;;1.00;99.90;;;;;;5021344;28;20291;-36
2023/12/02 03:10:03;;;;;;;51.72;28.45;;;1.00;99.90;;;;;;5021539;28;20187;-38
2023/12/02 03:12:29;;;;;;;50.33;27.38;;;1.10;99.90;;;;;;5022416;28;20217;-39
2023/12/02 03:14:55;;;;;;;51.13;27.90;;;1.10;99.90;;;;;;5021378;28;20206;-37
2023/12/02 03:17:21;;;;;;;48.92;26.95;;;1.10;99.90;;;;;;5022459;28;20279;-37
2023/12/02 03:19:48;;;;;;;49.35;27.13;;;1.10;99.90;;;;;;5022319;28;20190;-39
2023/12/02 03:22:14;;;;;;;49.70;26.80;;;1.10;99.90;;;;;;5022618;28;20586;-37
2023/12/02 03:24:40;;;;;;;51.80;27.48;;;1.10;99.90;;;;;;5022597;28;20221;-37
2023/12/02 03:27:06;;;;;;;48.55;27.23;;;1.10;99.90;;;;;;5023051;28;20196;-37
2023/12/02 03:29:32;;;;;;;51.78;26.65;;;1.20;99.90;;;;;;5021944;28;20192;-39
2023/12/02 03:31:58;;;;;;;46.63;26.35;;;1.20;99.90;;;;;;5021546;28;20188;-38
2023/12/02 03:34:24;;;;;;;45.80;24.60;;;1.10;99.90;;;;;;5037560;28;20675;-37
2023/12/02 03:36:50;;;;;;;45.92;24.63;;;1.10;99.90;;;;;;5022169;28;20605;-40
2023/12/02 03:39:18;;;;;;;55.70;27.60;;;1.10;99.90;;;;;;5022536;28;20192;-36
2023/12/02 03:41:44;;;;;;;53.78;26.85;;;1.10;99.90;;;;;;5053754;28;20726;-38
2023/12/02 03:44:10;;;;;;;47.60;26.08;;;1.10;99.90;;;;;;5053716;28;20239;-39
2023/12/02 03:46:37;;;;;;;49.40;26.52;;;1.10;99.90;;;;;;5020895;28;20194;-38
2023/12/02 03:49:04;;;;;;;51.28;27.65;;;1.10;99.90;;;;;;5020067;28;20184;-39
2023/12/02 03:51:30;;;;;;;56.13;28.35;;;1.10;99.90;;;;;;5021707;28;20223;-39
2023/12/02 03:53:56;;;;;;;49.53;26.77;;;1.10;99.90;;;;;;5022374;28;20230;-37
2023/12/02 03:56:25;;;;;;;46.70;25.83;;;1.10;99.90;;;;;;5022298;28;20590;-41
2023/12/02 03:58:51;;;;;;;46.75;25.63;;;1.00;99.90;;;;;;5021949;28;20655;-40
2023/12/02 04:01:18;;;;;;;42.83;23.90;;;1.00;99.90;;;;;;5020039;28;20760;-40
2023/12/02 04:03:44;;;;;;;43.22;24.27;;;1.00;99.90;;;;;;5021128;28;20232;-37
2023/12/02 04:06:10;;;;;;;40.88;23.77;;;1.00;99.90;;;;;;5021493;28;20194;-35
2023/12/02 04:08:36;;;;;;;39.92;22.85;;;1.00;99.90;;;;;;5004057;28;20180;-37
2023/12/02 04:11:03;;;;;;;42.08;24.27;;;0.90;99.90;;;;;;5021769;28;20176;-40
2023/12/02 04:13:29;;;;;;;42.50;23.52;;;1.00;99.90;;;;;;5021383;28;21362;-36
2023/12/02 04:15:55;;;;;;;42.60;23.98;;;0.90;99.90;;;;;;5053581;28;20246;-41
2023/12/02 04:18:21;;;;;;;43.67;24.83;;;0.90;99.90;;;;;;5020565;28;20203;-40
2023/12/02 04:20:47;;;;;;;45.22;24.08;;;0.90;99.90;;;;;;5022402;28;20187;-36
2023/12/02 04:23:14;;;;;;;48.47;25.60;;;0.80;99.90;;;;;;5021317;28;20670;-43
2023/12/02 04:25:40;;;;;;;46.47;25.20;;;0.90;99.90;;;;;;5021023;28;20188;-38
2023/12/02 04:28:07;;;;;;;47.60;26.70;;;0.80;99.90;;;;;;5021471;28;20188;-37
2023/12/02 04:30:37;;;;;;;45.05;24.77;;;0.80;99.90;;;;;;5019963;28;20195;-41
2023/12/02 04:33:03;;;;;;;47.38;27.15;;;0.80;99.90;;;;;;5021190;28;20191;-37
2023/12/02 04:35:30;;;;;;;50.90;28.05;;;0.80;99.90;;;;;;5021328;28;20192;-38
2023/12/02 04:37:56;;;;;;;47.33;26.58;;;0.80;99.90;;;;;;5022130;28;20187;-38
2023/12/02 04:40:22;;;;;;;50.40;27.02;;;0.80;99.90;;;;;;5020591;28;20207;-38
2023/12/02 04:42:48;;;;;;;43.10;25.05;;;0.80;99.90;;;;;;5053051;28;20283;-37
2023/12/02 04:45:15;;;;;;;47.33;26.23;;;0.80;99.90;;;;;;5020938;28;20203;-37
2023/12/02 04:47:41;;;;;;;51.70;28.73;;;0.80;99.90;;;;;;5020315;28;20193;-37
2023/12/02 04:50:07;;;;;;;44.95;26.48;;;0.80;99.90;;;;;;5020599;28;20180;-37
2023/12/02 04:52:33;;;;;;;50.40;27.52;;;0.80;99.90;;;;;;5020190;28;20195;-43
2023/12/02 04:54:59;;;;;;;48.20;26.88;;;0.80;99.90;;;;;;5019682;28;20192;-38
2023/12/02 04:57:28;;;;;;;46.88;25.48;;;0.80;99.90;;;;;;5021645;28;20203;-39
2023/12/02 04:59:54;;;;;;;47.17;26.92;;;0.80;99.90;;;;;;5021145;28;20214;-37
2023/12/02 05:02:20;;;;;;;47.08;26.25;;;0.80;99.90;;;;;;5053013;28;20907;-37
2023/12/02 05:04:47;;;;;;;44.67;25.35;;;0.80;99.90;;;;;;5020461;28;20310;-37
2023/12/02 05:07:13;;;;;;;49.38;26.95;;;0.90;99.90;;;;;;5020569;28;20188;-37
2023/12/02 05:09:39;;;;;;;50.45;26.38;;;0.90;99.90;;;;;;5052268;28;20194;-38
2023/12/02 05:12:06;;;;;;;48.60;26.67;;;0.80;99.90;;;;;;5020345;28;20180;-38
2023/12/02 05:14:32;;;;;;;50.63;27.55;;;0.80;99.90;;;;;;5020539;28;20294;-39
2023/12/02 05:16:58;;;;;;;50.85;27.67;;;0.80;99.90;;;;;;5020861;28;20188;-37
2023/12/02 05:19:24;;;;;;;49.80;25.65;;;0.80;99.90;;;;;;5020875;28;20206;-38
2023/12/02 05:21:50;;;;;;;47.08;25.65;;;0.80;99.90;;;;;;5022787;28;20191;-39
2023/12/02 05:24:19;;;;;;;45.92;27.10;;;0.80;99.90;;;;;;5024295;28;20257;-38
2023/12/02 05:26:46;;;;;;;51.53;27.20;;;0.80;99.90;;;;;;5024539;28;20203;-38
2023/12/02 05:29:12;;;;;;;49.33;26.45;;;0.80;99.90;;;;;;5025085;28;20188;-37
2023/12/02 05:31:38;;;;;;;47.05;27.38;;;0.80;99.90;;;;;;5022819;28;20659;-36
2023/12/02 05:34:04;;;;;;;47.75;26.67;;;0.80;99.90;;;;;;5024519;28;20184;-37
2023/12/02 05:36:31;;;;;;;45.28;25.75;;;0.70;99.90;;;;;;5022855;28;20210;-39
2023/12/02 05:38:57;;;;;;;48.00;26.45;;;0.70;99.90;;;;;;5024329;28;21333;-38
2023/12/02 05:41:23;;;;;;;49.22;27.55;;;0.70;99.90;;;;;;5024608;28;20188;-38
2023/12/02 05:43:49;;;;;;;48.17;26.23;;;0.70;99.90;;;;;;5022953;28;20215;-37
2023/12/02 05:46:16;;;;;;;47.35;26.73;;;0.70;99.90;;;;;;5023829;28;20820;-37
2023/12/02 05:48:46;;;;;;;48.65;27.35;;;0.70;99.90;;;;;;5024450;28;20880;-39
2023/12/02 05:51:13;;;;;;;44.53;26.88;;;0.70;99.90;;;;;;5023894;28;20562;-37
2023/12/02 05:53:39;;;;;;;42.03;23.73;;;0.70;99.90;;;;;;5022715;28;20191;-38
2023/12/02 05:56:07;;;;;;;43.47;24.00;;;0.70;99.90;;;;;;5024087;28;20211;-38
2023/12/02 05:58:33;;;;;;;47.10;25.33;;;0.70;99.90;;;;;;5023199;28;20188;-37
2023/12/02 06:00:58;;;;;;;46.72;26.92;;;0.70;99.90;;;;;;5023318;28;20233;-38
2023/12/02 06:03:24;;;;;;;45.83;26.23;;;0.70;99.90;;;;;;5023564;28;20230;-37
2023/12/02 06:05:50;;;;;;;48.38;26.08;;;0.70;99.90;;;;;;5024093;28;20188;-38
2023/12/02 06:08:16;;;;;;;47.38;27.17;;;0.70;99.90;;;;;;5022432;28;20992;-39
2023/12/02 06:10:42;;;;;;;50.15;27.70;;;0.70;99.90;;;;;;5022324;28;20196;-36
2023/12/02 06:13:07;;;;;;;47.13;26.10;;;0.80;99.90;;;;;;5055605;28;20196;-40
2023/12/02 06:15:33;;;;;;;46.15;27.15;;;0.70;99.90;;;;;;5023105;28;20212;-36
2023/12/02 06:18:00;;;;;;;44.13;26.35;;;0.70;99.90;;;;;;5022093;28;20192;-39
2023/12/02 06:20:26;;;;;;;45.78;26.35;;;0.70;99.90;;;;;;5023257;28;20215;-39
2023/12/02 06:22:55;;;;;;;48.17;26.65;;;0.70;99.90;;;;;;5023821;28;20188;-38
2023/12/02 06:25:21;;;;;;;48.08;27.08;;;0.70;99.90;;;;;;5021937;28;20216;-36
2023/12/02 06:27:47;;;;;;;46.17;26.73;;;0.70;99.90;;;;;;5022793;28;20192;-37
2023/12/02 06:30:18;;;;;;;49.30;27.35;;;0.70;99.90;;;;;;5054702;28;20184;-37
2023/12/02 06:32:44;;;;;;;48.38;27.25;;;0.70;99.90;;;;;;5023184;28;20239;-38
2023/12/02 06:35:10;;;;;;;45.40;26.10;;;0.80;99.90;;;;;;5023311;28;20727;-39
2023/12/02 06:37:36;;;;;;;44.92;26.52;;;0.80;99.90;;;;;;5022505;28;20191;-38
2023/12/02 06:40:03;;;;;;;45.22;25.77;;;0.80;99.90;;;;;;5009444;28;21059;-37
2023/12/02 06:42:29;;;;;;;47.55;26.60;;;0.80;99.90;;;;;;5023151;28;20648;-39
2023/12/02 06:44:55;;;;;;;45.60;26.15;;;0.70;99.90;;;;;;5023282;28;20208;-37
2023/12/02 06:47:21;;;;;;;44.42;25.23;;;0.70;99.90;;;;;;5023016;28;20188;-39
2023/12/02 06:49:47;;;;;;;45.22;25.70;;;0.70;99.90;;;;;;5021369;28;20191;-37
2023/12/02 06:52:13;;;;;;;43.67;25.85;;;0.70;99.90;;;;;;5022522;28;20658;-38
2023/12/02 06:54:38;;;;;;;44.83;25.67;;;0.70;99.90;;;;;;5022945;28;20200;-38
2023/12/02 06:57:05;;;;;;;44.85;26.00;;;0.70;99.90;;;;;;5054351;28;20188;-42
2023/12/02 06:59:31;;;;;;;47.28;25.77;;;0.70;99.90;;;;;;5021800;28;20703;-36
2023/12/02 07:01:57;;;;;;;46.40;26.15;;;0.70;99.90;;;;;;5054258;28;20192;-37
2023/12/02 07:04:23;;;;;;;43.92;25.85;;;0.70;99.90;;;;;;5022080;28;20306;-38
2023/12/02 07:06:49;;;;;;;43.95;25.17;;;0.70;99.90;;;;;;5022143;28;20290;-37
2023/12/02 07:09:15;;;;;;;43.13;25.25;;;0.70;99.90;;;;;;5021984;28;20285;-39
2023/12/02 07:11:41;;;;;;;45.40;26.75;;;0.70;99.90;;;;;;5022796;28;21088;-36
2023/12/02 07:14:07;;;;;;;47.58;25.95;;;0.70;99.90;;;;;;5022570;28;20211;-38
2023/12/02 07:16:33;;;;;;;46.22;27.02;;;0.80;99.90;;;;;;5022078;28;20283;-39
2023/12/02 07:18:59;;;;;;;46.05;26.65;;;0.80;99.90;;;;;;5021088;28;20210;-38
2023/12/02 07:21:25;;;;;;;45.03;26.75;;;0.80;99.90;;;;;;5022176;28;20675;-36
2023/12/02 07:23:51;;;;;;;46.22;26.30;;;0.80;99.90;;;;;;5021873;28;20208;-37
2023/12/02 07:26:17;;;;;;;43.63;26.48;;;0.80;99.90;;;;;;5023187;28;20215;-38
2023/12/02 07:28:43;;;;;;;46.67;26.63;;;0.80;99.90;;;;;;5021155;28;20639;-39
2023/12/02 07:31:13;;;;;;;47.88;26.77;;;0.80;99.90;;;;;;5021800;28;20539;-38
2023/12/02 07:33:39;;;;;;;46.70;26.75;;;0.80;99.90;;;;;;5021974;28;20232;-38
2023/12/02 07:36:05;;;;;;;49.20;27.95;;;0.80;99.90;;;;;;5021221;28;20194;-39
2023/12/02 07:38:31;;;;;;;46.67;27.33;;;0.80;99.90;;;;;;5021849;28;20207;-38
2023/12/02 07:40:57;;;;;;;45.83;26.63;;;0.90;99.90;;;;;;5022235;28;20187;-39
2023/12/02 07:43:23;;;;;;;48.50;27.33;;;0.90;99.90;;;;;;5020998;28;20565;-40
2023/12/02 07:45:49;;;;;;;48.97;26.77;;;0.90;99.90;;;;;;5020267;28;20295;-39
2023/12/02 07:48:15;;;;;;;46.45;25.23;;;0.90;99.90;;;;;;5021143;28;20183;-39
2023/12/02 07:50:40;;;;;;;47.22;26.42;;;0.90;99.90;;;;;;5021746;28;20183;-38
2023/12/02 07:53:06;;;;;;;46.08;26.73;;;0.90;99.90;;;;;;5021346;28;20191;-38
2023/12/02 07:55:32;;;;;;;44.55;26.13;;;0.90;99.90;;;;;;5021468;28;20191;-38
2023/12/02 07:57:58;;;;;;;47.05;25.92;;;0.90;99.90;;;;;;5021439;28;20267;-38
2023/12/02 08:00:24;;;;;;;44.47;25.80;;;0.90;99.90;;;;;;5021054;28;20192;-38
2023/12/02 08:02:50;;;;;;;43.03;25.13;;;0.90;99.90;;;;;;5021601;28;20301;-35
2023/12/02 08:05:16;;;;;;;48.33;26.85;;;0.90;99.90;;;;;;5021114;28;20251;-41
2023/12/02 08:07:43;;;;;;;47.47;26.63;;;0.90;99.90;;;;;;5018785;28;20220;-39
2023/12/02 08:10:09;;;;;;;47.35;25.25;;;0.90;99.90;;;;;;5021091;28;20242;-38
2023/12/02 08:12:35;;;;;;;48.60;26.77;;;1.00;99.90;;;;;;5021099;28;20184;-41
2023/12/02 08:15:01;;;;;;;46.10;26.85;;;1.00;99.90;;;;;;5020201;28;20184;-38
2023/12/02 08:17:28;;;;;;;52.92;28.13;;;1.00;99.90;;;;;;5011184;28;20211;-38
2023/12/02 08:19:53;;;;;;;46.88;27.52;;;1.00;99.90;;;;;;5021813;28;20180;-40
2023/12/02 08:22:24;;;;;;;46.25;25.15;;;1.10;99.90;;;;;;5021954;28;20180;-37
2023/12/02 08:24:51;;;;;;;54.05;28.73;;;1.10;99.90;;;;;;5020651;28;20568;-37
2023/12/02 08:27:17;;;;;;;47.90;27.70;;;1.20;99.90;;;;;;5020848;28;20278;-42
2023/12/02 08:29:43;;;;;;;50.42;29.70;;;1.20;99.90;;;;;;5019375;28;20354;-38
2023/12/02 08:32:09;;;;;;;53.13;29.40;;;1.30;99.90;;;;;;5021558;28;20211;-39
2023/12/02 08:34:35;;;;;;;45.35;26.08;;;1.30;99.90;;;;;;5019899;28;20175;-37
2023/12/02 08:37:01;;;;;;;48.45;27.45;;;1.30;99.90;;;;;;5020865;28;20191;-37
2023/12/02 08:39:27;;;;;;;50.17;26.80;;;1.40;99.90;;;;;;5020738;28;20219;-41
2023/12/02 08:41:53;;;;;;;50.30;27.73;;;1.40;99.90;;;;;;5019717;28;20670;-40
2023/12/02 08:44:19;;;;;;;44.22;26.45;;;1.40;99.90;;;;;;5020953;28;20215;-43
2023/12/02 08:46:45;;;;;;;46.78;26.48;;;1.50;99.90;;;;;;5021156;28;20187;-41
2023/12/02 08:49:11;;;;;;;46.78;27.88;;;1.60;99.90;;;;;;5021436;28;20190;-38
2023/12/02 08:51:39;;;;;;;46.92;27.65;;;1.60;99.90;;;;;;5021035;28;20271;-39
2023/12/02 08:54:05;;;;;;;48.75;27.48;;;1.70;99.90;;;;;;5020701;28;20206;-37
2023/12/02 08:56:31;;;;;;;57.38;27.17;;;1.80;99.90;;;;;;5055666;28;20557;-41
2023/12/02 08:58:59;;;;;;;43.40;24.35;;;1.80;99.90;;;;;;5024240;28;20191;-44
2023/12/02 09:01:25;;;;;;;46.58;26.35;;;1.90;99.90;;;;;;5024448;28;20554;-38
2023/12/02 09:03:52;;;;;;;46.55;26.70;;;1.90;99.90;;;;;;5022976;28;20219;-37
2023/12/02 09:06:18;;;;;;;41.45;25.00;;;2.00;99.90;;;;;;5024884;28;20232;-38
2023/12/02 09:08:44;;;;;;;42.25;26.67;;;2.00;99.90;;;;;;5024822;28;20187;-37
2023/12/02 09:11:10;;;;;;;45.90;26.85;;;2.00;99.90;;;;;;5020260;28;20192;-40
2023/12/02 09:13:51;;;;;;;41.65;23.88;;;2.00;99.90;;;;;;5024633;28;20207;-39
2023/12/02 09:16:21;;;;;;;43.00;24.67;;;2.00;99.90;;;;;;5024845;28;20727;-37
2023/12/02 09:18:47;;;;;;;40.95;25.15;;;2.00;99.90;;;;;;5023958;28;20222;-37
2023/12/02 09:21:37;;;;;;;44.65;25.92;;;2.10;99.90;;;;;;5024091;28;20210;-36
2023/12/02 09:24:24;;;;;;;43.97;25.75;;;2.10;99.90;;;;;;5024389;28;20216;-40
2023/12/02 09:26:50;;;;;;;44.58;26.15;;;2.10;99.90;;;;;;5021943;28;20219;-37
2023/12/02 09:29:16;;;;;;;41.42;26.08;;;2.10;99.90;;;;;;5021536;28;20184;-38
2023/12/02 09:31:43;;;;;;;41.30;25.10;;;2.20;99.90;;;;;;5022446;28;20203;-38
2023/12/02 09:34:44;;;;;;;41.67;23.85;;;2.20;99.90;;;;;;5054430;28;20195;-39
2023/12/02 09:37:48;;;;;;;38.38;23.85;;;2.30;99.90;;;;;;5020501;28;20191;-38
2023/12/02 09:40:23;;;;;;;42.65;24.05;;;2.30;99.90;;;;;;5022305;28;20196;-37
2023/12/02 09:43:04;;;;;;;38.83;24.23;;;2.30;99.90;;;;;;5022566;28;20651;-37
2023/12/02 09:45:58;;;;;;;37.97;23.80;;;2.30;99.90;;;;;;5008540;28;20222;-37
2023/12/02 09:48:26;;;;;;;39.17;22.05;;;2.40;99.90;;;;;;5022297;28;21086;-38
2023/12/02 09:51:13;;;;;;;38.47;23.70;;;2.40;99.90;;;;;;5022198;28;20648;-38
2023/12/02 09:53:51;;;;;;;40.25;23.17;;;2.60;99.90;;;;;;5021773;28;20648;-37
2023/12/02 09:56:24;;;;;;;42.10;24.17;;;2.60;99.90;;;;;;5020896;28;20271;-39
2023/12/02 09:59:13;;;;;;;39.65;23.75;;;2.70;99.90;;;;;;5022428;28;20184;-40
2023/12/02 10:01:42;;;;;;;43.13;23.58;;;2.80;99.90;;;;;;5021743;28;20242;-38
2023/12/02 10:04:32;;;;;;;40.65;22.85;;;2.90;99.90;;;;;;5021891;28;20277;-38
2023/12/02 10:07:08;;;;;;;32.33;19.15;;;2.90;99.90;;;;;;5021631;28;20183;-41
2023/12/02 10:09:53;;;;;;;31.45;19.15;;;3.00;99.90;;;;;;5020653;28;20804;-38
2023/12/02 10:12:47;;;;;;;33.90;20.52;;;3.10;99.90;;;;;;5022252;28;20207;-39
2023/12/02 10:15:16;;;;;;;30.00;19.33;;;3.20;99.90;;;;;;5021646;28;20207;-38
2023/12/02 10:18:15;;;;;;;29.95;18.70;;;3.30;99.90;;;;;;5021786;28;21443;-38
2023/12/02 10:20:43;;;;;;;28.73;17.83;;;3.40;99.90;;;;;;5020372;28;20183;-40
2023/12/02 10:23:31;;;;;;;33.95;20.25;;;3.50;99.90;;;;;;5022233;28;20204;-38
2023/12/02 10:26:00;;;;;;;31.45;18.60;;;3.60;99.90;;;;;;5053950;28;20184;-39
2023/12/02 10:28:44;;;;;;;29.88;18.42;;;3.70;99.90;;;;;;5020605;28;20187;-39
2023/12/02 10:31:22;;;;;;;30.92;18.38;;;3.80;99.90;;;;;;5021986;28;20203;-37
2023/12/02 10:33:57;;;;;;;32.53;19.20;;;3.90;99.90;;;;;;5022491;28;20559;-38
2023/12/02 10:36:27;;;;;;;32.70;19.02;;;4.00;99.90;;;;;;5022798;28;20261;-37
2023/12/02 10:39:00;;;;;;;30.75;18.75;;;4.10;99.90;;;;;;5023089;28;20195;-39
2023/12/02 10:41:44;;;;;;;32.58;19.58;;;4.20;99.90;;;;;;5022012;28;20649;-39
2023/12/02 10:44:13;;;;;;;32.13;19.08;;;4.30;99.90;;;;;;5054555;28;20730;-36
2023/12/02 10:46:43;;;;;;;31.08;19.05;;;4.30;99.90;;;;;;5022381;28;20823;-39
2023/12/02 10:49:12;;;;;;;34.22;20.35;;;4.30;99.90;;;;;;5038178;28;20188;-39
2023/12/02 10:51:41;;;;;;;29.95;18.80;;;4.40;99.90;;;;;;5022332;28;21560;-38
2023/12/02 10:54:08;;;;;;;29.05;19.38;;;4.40;99.90;;;;;;5023082;28;20660;-37
2023/12/02 10:56:38;;;;;;;28.95;18.50;;;4.40;99.90;;;;;;5022410;28;20199;-36
2023/12/02 10:59:05;;;;;;;30.48;19.05;;;4.40;99.90;;;;;;5022910;28;20196;-37
2023/12/02 11:01:45;;;;;;;29.02;18.42;;;4.40;99.90;;;;;;5022438;28;20586;-38
2023/12/02 11:04:24;;;;;;;26.13;17.27;;;4.40;99.90;;;;;;5022618;28;20222;-36
2023/12/02 11:06:57;;;;;;;28.08;17.70;;;4.40;99.90;;;;;;5022191;28;20663;-37
2023/12/02 11:09:42;;;;;;;24.52;15.90;;;4.50;99.90;;;;;;5022664;28;20195;-36
2023/12/02 11:12:26;;;;;;;27.67;16.35;;;4.50;99.90;;;;;;5054575;28;20215;-38
2023/12/02 11:14:59;;;;;;;23.85;15.10;;;4.50;99.90;;;;;;5020199;28;20246;-39
2023/12/02 11:17:34;;;;;;;22.67;14.02;;;4.50;99.90;;;;;;5021550;28;20188;-42
2023/12/02 11:20:09;;;;;;;18.38;12.27;;;4.50;99.90;;;;;;5021095;28;20201;-40
2023/12/02 11:22:58;;;;;;;19.38;12.55;;;4.60;99.90;;;;;;5021640;28;20191;-41
2023/12/02 11:25:48;;;;;;;20.80;11.77;;;4.60;99.90;;;;;;5021844;28;20354;-37
2023/12/02 11:28:32;;;;;;;19.70;12.57;;;4.60;99.90;;;;;;5053634;28;20262;-38
2023/12/02 11:31:19;;;;;;;20.42;11.18;;;4.60;99.90;;;;;;5021517;28;20198;-38
2023/12/02 11:34:13;;;;;;;17.88;11.15;;;4.70;99.90;;;;;;5021527;28;20596;-38
2023/12/02 11:37:16;;;;;;;18.80;10.98;;;4.80;99.90;;;;;;5021847;28;20343;-38
2023/12/02 11:39:55;;;;;;;19.05;11.23;;;4.80;99.90;;;;;;5020453;28;20196;-36
2023/12/02 11:42:25;;;;;;;15.75;10.50;;;4.90;99.90;;;;;;5021841;28;20246;-36
2023/12/02 11:45:04;;;;;;;15.25;9.82;;;4.90;99.90;;;;;;5021514;28;20672;-38
2023/12/02 11:48:01;;;;;;;12.65;8.77;;;5.00;99.90;;;;;;5023018;28;20187;-40
2023/12/02 11:50:45;;;;;;;15.65;8.30;;;5.00;99.90;;;;;;5036393;28;20191;-37
2023/12/02 11:53:21;;;;;;;14.25;8.52;;;4.90;99.90;;;;;;5021589;28;20196;-37
2023/12/02 11:55:50;;;;;;;12.68;8.23;;;5.00;99.90;;;;;;5021646;28;20222;-40
2023/12/02 11:58:48;;;;;;;13.95;9.10;;;5.00;99.90;;;;;;5021140;28;20239;-40
2023/12/02 12:01:14;;;;;;;13.32;8.30;;;5.00;99.90;;;;;;5030688;28;20230;-36
2023/12/02 12:04:08;;;;;;;13.15;8.52;;;5.00;99.90;;;;;;5021238;28;20688;-42
2023/12/02 12:06:46;;;;;;;14.00;8.35;;;5.00;99.90;;;;;;5021326;28;20589;-38
2023/12/02 12:09:42;;;;;;;15.10;9.20;;;4.90;99.90;;;;;;5021372;28;20267;-36
2023/12/02 12:12:10;;;;;;;12.50;8.68;;;4.90;99.90;;;;;;5020660;28;20188;-39
2023/12/02 12:14:37;;;;;;;13.68;8.70;;;4.90;99.90;;;;;;5021592;28;20723;-36
2023/12/02 12:17:04;;;;;;;16.88;9.30;;;4.80;99.90;;;;;;5021071;28;20187;-40
2023/12/02 12:19:30;;;;;;;15.00;9.95;;;4.80;99.90;;;;;;5020830;28;20215;-38
2023/12/02 12:21:56;;;;;;;15.68;10.30;;;4.80;99.90;;;;;;5021906;28;20188;-39
2023/12/02 12:24:22;;;;;;;15.00;9.60;;;4.80;99.90;;;;;;5020900;28;20207;-37
2023/12/02 12:26:51;;;;;;;15.63;10.32;;;4.80;99.90;;;;;;5020862;28;20183;-38
2023/12/02 12:29:16;;;;;;;16.33;10.57;;;4.70;99.90;;;;;;5020332;28;20191;-37
2023/12/02 12:31:42;;;;;;;17.25;10.30;;;4.70;99.90;;;;;;5018513;28;20180;-39
2023/12/02 12:34:12;;;;;;;17.92;11.13;;;4.70;99.90;;;;;;5020031;28;20544;-36
2023/12/02 12:36:40;;;;;;;19.27;11.52;;;4.70;99.90;;;;;;5020748;28;20192;-37
2023/12/02 12:39:07;;;;;;;16.48;11.18;;;4.70;99.90;;;;;;5020391;28;20203;-41
2023/12/02 12:41:39;;;;;;;18.15;11.35;;;4.70;99.90;;;;;;5020248;28;20292;-36
2023/12/02 12:44:05;;;;;;;17.67;11.35;;;4.70;99.90;;;;;;5021015;28;20265;-37
2023/12/02 12:46:32;;;;;;;17.17;10.80;;;4.70;99.90;;;;;;5020809;28;20264;-38
2023/12/02 12:49:03;;;;;;;19.17;11.80;;;4.80;99.90;;;;;;5019441;28;20270;-40